createdAt,value
2023-04-07T00:00:27.951Z,100200.28
2023-04-07T00:02:32.750Z,100194.44
2023-04-07T00:04:36.228Z,100200.84
2023-04-07T00:06:40.640Z,100194.16
2023-04-07T00:08:43.524Z,100193.97
2023-04-07T00:10:47.113Z,100196.19
2023-04-07T00:12:50.325Z,100193.78
2023-04-07T00:14:54.785Z,100190.88
2023-04-07T00:16:58.091Z,100196.50
2023-04-07T00:19:01.109Z,100196.41
2023-04-07T00:21:04.637Z,100196.81
2023-04-07T00:23:07.566Z,100195.22
2023-04-07T00:25:11.030Z,100192.66
2023-04-07T00:27:13.858Z,100199.75
2023-04-07T00:29:16.988Z,100184.66
2023-04-07T00:31:21.416Z,100188.59
2023-04-07T00:33:24.344Z,100187.72
2023-04-07T00:35:27.735Z,100187.59
2023-04-07T00:37:30.867Z,100191.06
2023-04-07T00:39:34.009Z,100186.19
2023-04-07T00:41:36.982Z,100184.50
2023-04-07T00:43:40.288Z,100185.88
2023-04-07T00:45:43.444Z,100177.78
2023-04-07T00:47:48.147Z,100189.22
2023-04-07T00:49:51.149Z,100176.22
2023-04-07T00:51:54.075Z,100171.94
2023-04-07T00:53:57.526Z,100181.28
2023-04-07T00:56:00.745Z,100174.81
2023-04-07T00:58:05.077Z,100174.00
2023-04-07T01:00:09.229Z,100175.03
2023-04-07T01:02:15.668Z,100174.81
2023-04-07T01:04:26.882Z,100176.44
2023-04-07T01:06:32.956Z,100173.75
2023-04-07T01:08:47.874Z,100169.56
2023-04-07T01:10:53.343Z,100169.63
2023-04-07T01:13:03.438Z,100170.47
2023-04-07T01:15:09.957Z,100167.75
2023-04-07T01:17:17.460Z,100164.19
2023-04-07T01:19:33.654Z,100166.81
2023-04-07T01:21:36.910Z,100167.50
2023-04-07T01:23:53.747Z,100169.00
2023-04-07T01:26:08.503Z,100163.41
2023-04-07T01:28:24.970Z,100157.78
2023-04-07T01:30:30.937Z,100159.72
2023-04-07T01:32:36.086Z,100159.63
2023-04-07T01:34:39.848Z,100154.38
2023-04-07T01:36:43.706Z,100158.47
2023-04-07T01:38:47.180Z,100155.81
2023-04-07T01:40:51.193Z,100158.31
2023-04-07T01:42:54.617Z,100151.31
2023-04-07T01:44:57.703Z,100157.44
2023-04-07T01:47:03.010Z,100162.38
2023-04-07T01:49:06.410Z,100154.63
2023-04-07T01:51:12.098Z,100163.06
2023-04-07T01:53:15.688Z,100154.28
2023-04-07T01:55:18.588Z,100152.50
2023-04-07T01:57:33.685Z,100156.78
2023-04-07T01:59:42.357Z,100146.38
2023-04-07T02:01:45.459Z,100153.72
2023-04-07T02:03:54.388Z,100146.78
2023-04-07T02:06:00.468Z,100149.34
2023-04-07T02:08:07.184Z,100152.13
2023-04-07T02:10:14.947Z,100153.66
2023-04-07T02:12:18.399Z,100147.03
2023-04-07T02:14:32.841Z,100146.00
2023-04-07T02:16:41.842Z,100148.75
2023-04-07T02:18:46.726Z,100143.53
2023-04-07T02:20:52.032Z,100145.53
2023-04-07T02:22:55.894Z,100149.19
2023-04-07T02:24:59.082Z,100141.09
2023-04-07T02:27:03.404Z,100146.84
2023-04-07T02:29:06.480Z,100142.38
2023-04-07T02:31:09.655Z,100143.09
2023-04-07T02:33:12.936Z,100138.28
2023-04-07T02:35:16.163Z,100141.06
2023-04-07T02:37:20.455Z,100147.16
2023-04-07T02:39:23.566Z,100148.56
2023-04-07T02:41:26.722Z,100142.81
2023-04-07T02:43:29.771Z,100145.47
2023-04-07T02:45:33.399Z,100151.25
2023-04-07T02:47:36.933Z,100144.19
2023-04-07T02:49:40.066Z,100143.44
2023-04-07T02:51:43.019Z,100153.84
2023-04-07T02:53:47.701Z,100151.06
2023-04-07T02:55:50.672Z,100146.00
2023-04-07T02:57:53.538Z,100146.78
2023-04-07T03:00:22.390Z,100147.16
2023-04-07T03:02:39.519Z,100149.19
2023-04-07T03:04:42.831Z,100146.47
2023-04-07T03:06:45.847Z,100147.00
2023-04-07T03:08:52.767Z,100139.53
2023-04-07T03:10:56.090Z,100141.84
2023-04-07T03:13:04.224Z,100145.78
2023-04-07T03:15:09.756Z,100143.94
2023-04-07T03:17:13.464Z,100141.78
2023-04-07T03:19:17.514Z,100150.47
2023-04-07T03:21:23.672Z,100146.69
2023-04-07T03:23:28.769Z,100143.47
2023-04-07T03:25:35.951Z,100148.06
2023-04-07T03:27:39.603Z,100145.53
2023-04-07T03:29:45.065Z,100140.91
2023-04-07T03:31:50.299Z,100141.59
2023-04-07T03:33:57.324Z,100145.44
2023-04-07T03:36:01.533Z,100145.16
2023-04-07T03:38:05.652Z,100145.22
2023-04-07T03:40:09.659Z,100146.22
2023-04-07T03:42:14.229Z,100146.72
2023-04-07T03:44:18.014Z,100151.97
2023-04-07T03:46:21.858Z,100143.25
2023-04-07T03:48:27.475Z,100144.97
2023-04-07T03:50:38.271Z,100150.22
2023-04-07T03:52:49.725Z,100147.94
2023-04-07T03:55:00.644Z,100147.66
2023-04-07T03:57:07.564Z,100151.88
2023-04-07T03:59:17.495Z,100159.84
2023-04-07T04:01:29.274Z,100155.13
2023-04-07T04:03:34.381Z,100147.91
2023-04-07T04:05:58.792Z,100152.06
2023-04-07T04:08:05.819Z,100154.75
2023-04-07T04:10:12.302Z,100151.56
2023-04-07T04:12:19.161Z,100153.38
2023-04-07T04:14:37.064Z,100150.84
2023-04-07T04:16:41.940Z,100163.50
2023-04-07T04:18:58.980Z,100164.66
2023-04-07T04:21:09.763Z,100165.69
2023-04-07T04:23:15.957Z,100160.25
2023-04-07T04:25:19.405Z,100162.84
2023-04-07T04:27:26.919Z,100160.06
2023-04-07T04:29:39.456Z,100158.38
2023-04-07T04:31:45.951Z,100161.75
2023-04-07T04:33:50.938Z,100166.81
2023-04-07T04:35:54.052Z,100169.34
2023-04-07T04:37:57.749Z,100160.41
2023-04-07T04:40:01.280Z,100168.25
2023-04-07T04:42:05.202Z,100172.78
2023-04-07T04:44:12.377Z,100165.63
2023-04-07T04:46:19.571Z,100170.31
2023-04-07T04:48:23.670Z,100166.31
2023-04-07T04:50:26.537Z,100163.47
2023-04-07T04:52:30.084Z,100170.59
2023-04-07T04:54:33.317Z,100173.25
2023-04-07T04:56:36.951Z,100177.56
2023-04-07T04:58:42.186Z,100175.63
2023-04-07T05:00:47.446Z,100178.88
2023-04-07T05:02:52.228Z,100177.09
2023-04-07T05:04:55.765Z,100177.22
2023-04-07T05:07:03.028Z,100176.50
2023-04-07T05:09:07.463Z,100186.72
2023-04-07T05:11:17.841Z,100183.97
2023-04-07T05:13:25.802Z,100177.66
2023-04-07T05:15:29.419Z,100182.91
2023-04-07T05:17:33.298Z,100183.66
2023-04-07T05:19:39.809Z,100186.63
2023-04-07T05:21:51.815Z,100183.38
2023-04-07T05:23:57.171Z,100195.00
2023-04-07T05:26:00.536Z,100193.94
2023-04-07T05:28:03.468Z,100195.00
2023-04-07T05:30:07.792Z,100196.69
2023-04-07T05:32:11.636Z,100198.69
2023-04-07T05:34:14.628Z,100208.94
2023-04-07T05:36:25.607Z,100207.09
2023-04-07T05:38:32.129Z,100207.78
2023-04-07T05:40:42.265Z,100207.72
2023-04-07T05:42:48.258Z,100205.06
2023-04-07T05:44:51.698Z,100207.56
2023-04-07T05:50:32.053Z,100210.94
2023-04-07T05:52:40.025Z,100212.56
2023-04-07T05:54:54.349Z,100204.53
2023-04-07T05:56:59.570Z,100209.06
2023-04-07T05:59:04.792Z,100213.13
2023-04-07T06:01:08.634Z,100215.00
2023-04-07T06:03:11.668Z,100221.78
2023-04-07T06:05:34.704Z,100215.38
2023-04-07T06:07:39.505Z,100215.22
2023-04-07T06:09:43.265Z,100214.28
2023-04-07T06:11:47.105Z,100220.16
2023-04-07T06:13:51.601Z,100226.22
2023-04-07T06:15:56.339Z,100226.09
2023-04-07T06:17:59.399Z,100227.72
2023-04-07T06:20:02.470Z,100235.56
2023-04-07T06:22:08.934Z,100234.63
2023-04-07T06:24:15.530Z,100241.50
2023-04-07T06:26:18.461Z,100237.16
2023-04-07T06:28:22.063Z,100237.91
2023-04-07T06:30:25.322Z,100235.25
2023-04-07T06:32:28.540Z,100247.38
2023-04-07T06:34:33.516Z,100242.97
2023-04-07T06:36:36.535Z,100238.44
2023-04-07T06:38:39.893Z,100243.63
2023-04-07T06:40:44.214Z,100245.47
2023-04-07T06:42:47.584Z,100244.44
2023-04-07T06:45:01.532Z,100256.69
2023-04-07T06:47:04.598Z,100250.31
2023-04-07T06:49:07.440Z,100251.53
2023-04-07T06:51:10.467Z,100252.09
2023-04-07T06:53:13.679Z,100260.88
2023-04-07T06:55:16.921Z,100255.38
2023-04-07T06:57:21.166Z,100258.81
2023-04-07T06:59:24.063Z,100256.06
2023-04-07T07:01:28.031Z,100260.38
2023-04-07T07:03:31.891Z,100264.03
2023-04-07T07:05:34.826Z,100261.16
2023-04-07T07:07:37.738Z,100260.03
2023-04-07T07:09:40.768Z,100256.47
2023-04-07T07:11:43.712Z,100260.00
2023-04-07T07:13:48.301Z,100259.66
2023-04-07T07:15:51.980Z,100263.88
2023-04-07T07:17:55.119Z,100270.88
2023-04-07T07:19:58.324Z,100265.44
2023-04-07T07:22:04.110Z,100265.34
2023-04-07T07:24:07.701Z,100270.63
2023-04-07T07:26:10.821Z,100266.00
2023-04-07T07:28:13.784Z,100271.47
2023-04-07T07:30:18.159Z,100273.78
2023-04-07T07:32:21.568Z,100270.34
2023-04-07T07:34:24.525Z,100278.19
2023-04-07T07:36:27.626Z,100279.78
2023-04-07T07:38:30.642Z,100282.38
2023-04-07T07:40:33.602Z,100284.69
2023-04-07T07:42:36.540Z,100289.34
2023-04-07T07:44:39.527Z,100282.97
2023-04-07T07:46:43.894Z,100285.94
2023-04-07T07:48:47.107Z,100288.38
2023-04-07T07:50:50.730Z,100287.91
2023-04-07T07:52:53.785Z,100295.69
2023-04-07T07:54:56.670Z,100295.31
2023-04-07T07:56:59.561Z,100303.91
2023-04-07T07:59:02.796Z,100302.41
2023-04-07T08:01:08.248Z,100298.56
2023-04-07T08:03:12.835Z,100304.13
2023-04-07T08:05:16.033Z,100305.97
2023-04-07T08:07:18.888Z,100304.94
2023-04-07T08:09:22.241Z,100306.53
2023-04-07T08:11:25.359Z,100313.44
2023-04-07T08:13:28.420Z,100316.97
2023-04-07T08:15:31.456Z,100315.91
2023-04-07T08:17:34.400Z,100322.09
2023-04-07T08:19:38.759Z,100318.66
2023-04-07T08:21:41.681Z,100316.97
2023-04-07T08:23:44.799Z,100323.63
2023-04-07T08:25:47.738Z,100321.19
2023-04-07T08:27:50.664Z,100329.97
2023-04-07T08:30:00.516Z,100329.53
2023-04-07T08:32:03.521Z,100327.53
2023-04-07T08:34:06.974Z,100327.03
2023-04-07T08:36:11.321Z,100334.72
2023-04-07T08:38:14.285Z,100328.03
2023-04-07T08:40:17.462Z,100340.81
2023-04-07T08:42:21.154Z,100337.38
2023-04-07T08:44:24.577Z,100341.81
2023-04-07T08:46:27.910Z,100339.13
2023-04-07T08:48:33.979Z,100346.09
2023-04-07T08:50:37.359Z,100338.97
2023-04-07T08:52:46.657Z,100345.44
2023-04-07T08:54:49.756Z,100343.69
2023-04-07T08:56:53.003Z,100346.66
2023-04-07T08:58:56.063Z,100352.53
2023-04-07T09:00:59.480Z,100352.22
2023-04-07T09:03:03.716Z,100360.03
2023-04-07T09:05:08.872Z,100356.56
2023-04-07T09:07:11.812Z,100353.13
2023-04-07T09:09:16.448Z,100351.44
2023-04-07T09:11:19.660Z,100355.25
2023-04-07T09:13:23.413Z,100364.22
2023-04-07T09:15:26.744Z,100356.97
2023-04-07T09:17:30.406Z,100359.75
2023-04-07T09:19:34.360Z,100365.88
2023-04-07T09:21:51.294Z,100365.75
2023-04-07T09:23:54.324Z,100367.31
2023-04-07T09:26:00.264Z,100368.09
2023-04-07T09:28:04.198Z,100362.69
2023-04-07T09:30:14.993Z,100364.31
2023-04-07T09:32:38.637Z,100366.84
2023-04-07T09:34:42.688Z,100372.59
2023-04-07T09:36:45.664Z,100365.97
2023-04-07T09:38:51.455Z,100368.84
2023-04-07T09:41:09.004Z,100372.97
2023-04-07T09:43:16.855Z,100369.34
2023-04-07T09:45:33.773Z,100368.41
2023-04-07T09:47:38.251Z,100371.13
2023-04-07T09:49:52.586Z,100374.84
2023-04-07T09:51:57.552Z,100367.66
2023-04-07T09:54:00.805Z,100372.25
2023-04-07T09:56:04.310Z,100380.13
2023-04-07T09:58:09.071Z,100379.41
2023-04-07T10:00:12.773Z,100376.84
2023-04-07T10:02:18.899Z,100383.03
2023-04-07T10:04:22.441Z,100387.50
2023-04-07T10:06:27.625Z,100389.25
2023-04-07T10:08:32.967Z,100383.81
2023-04-07T10:10:37.633Z,100390.09
2023-04-07T10:12:41.492Z,100398.88
2023-04-07T10:14:48.632Z,100389.09
2023-04-07T10:16:52.114Z,100398.88
2023-04-07T10:18:55.334Z,100393.81
2023-04-07T10:20:58.987Z,100394.53
2023-04-07T10:23:08.158Z,100401.28
2023-04-07T10:25:13.292Z,100389.63
2023-04-07T10:27:20.802Z,100401.94
2023-04-07T10:29:25.289Z,100397.56
2023-04-07T10:31:30.112Z,100403.56
2023-04-07T10:33:53.125Z,100408.78
2023-04-07T10:36:06.037Z,100407.97
2023-04-07T10:38:15.255Z,100407.28
2023-04-07T10:40:31.330Z,100414.66
2023-04-07T10:42:57.771Z,100417.56
2023-04-07T10:45:02.681Z,100418.94
2023-04-07T10:47:07.682Z,100419.09
2023-04-07T10:49:11.397Z,100423.00
2023-04-07T10:51:18.894Z,100424.72
2023-04-07T10:53:22.628Z,100428.28
2023-04-07T10:55:34.180Z,100426.47
2023-04-07T10:57:37.741Z,100432.56
2023-04-07T10:59:43.440Z,100432.56
2023-04-07T11:01:46.468Z,100435.19
2023-04-07T11:04:05.160Z,100439.63
2023-04-07T11:06:09.576Z,100431.13
2023-04-07T11:08:12.574Z,100436.22
2023-04-07T11:10:16.980Z,100439.69
2023-04-07T11:12:26.517Z,100444.28
2023-04-07T11:14:30.770Z,100443.94
2023-04-07T11:16:41.826Z,100441.50
2023-04-07T11:18:46.013Z,100444.53
2023-04-07T11:20:53.208Z,100442.63
2023-04-07T11:23:01.522Z,100446.97
2023-04-07T11:25:04.861Z,100444.06
2023-04-07T11:27:11.139Z,100446.56
2023-04-07T11:29:14.904Z,100448.31
2023-04-07T11:31:24.554Z,100448.25
2023-04-07T11:33:29.976Z,100450.16
2023-04-07T11:35:34.192Z,100453.31
2023-04-07T11:37:38.845Z,100453.84
2023-04-07T11:39:42.621Z,100447.72
2023-04-07T11:41:47.965Z,100461.66
2023-04-07T11:43:51.285Z,100459.84
2023-04-07T11:46:08.114Z,100456.47
2023-04-07T11:48:30.369Z,100461.78
2023-04-07T11:50:40.972Z,100463.81
2023-04-07T11:52:46.172Z,100465.41
2023-04-07T11:54:50.471Z,100465.88
2023-04-07T11:56:55.692Z,100470.13
2023-04-07T11:58:59.144Z,100472.41
2023-04-07T12:01:06.788Z,100480.41
2023-04-07T12:03:14.748Z,100473.28
2023-04-07T12:05:18.230Z,100481.34
2023-04-07T12:07:21.354Z,100480.03
2023-04-07T12:09:30.537Z,100482.25
2023-04-07T12:11:34.339Z,100485.03
2023-04-07T12:13:37.981Z,100489.94
2023-04-07T12:15:40.947Z,100484.50
2023-04-07T12:17:47.901Z,100493.50
2023-04-07T12:19:51.389Z,100499.66
2023-04-07T12:21:57.156Z,100494.00
2023-04-07T12:24:00.115Z,100497.38
2023-04-07T12:26:04.615Z,100488.88
2023-04-07T12:28:07.880Z,100493.03
2023-04-07T12:30:11.509Z,100497.81
2023-04-07T12:32:14.543Z,100507.28
2023-04-07T12:34:17.634Z,100506.78
2023-04-07T12:36:21.246Z,100506.72
2023-04-07T12:38:24.560Z,100507.75
2023-04-07T12:40:27.498Z,100503.09
2023-04-07T12:42:31.875Z,100510.94
2023-04-07T12:44:34.874Z,100508.81
2023-04-07T12:46:39.266Z,100512.50
2023-04-07T12:48:43.386Z,100514.94
2023-04-07T12:50:46.310Z,100520.50
2023-04-07T12:52:49.592Z,100512.75
2023-04-07T12:54:53.456Z,100522.94
2023-04-07T12:56:57.203Z,100521.22
2023-04-07T12:59:01.553Z,100516.22
2023-04-07T13:01:04.469Z,100519.25
2023-04-07T13:03:07.575Z,100525.56
2023-04-07T13:05:11.434Z,100531.53
2023-04-07T13:07:15.198Z,100518.50
2023-04-07T13:09:18.246Z,100521.59
2023-04-07T13:11:21.904Z,100523.56
2023-04-07T13:13:25.523Z,100522.72
2023-04-07T13:15:30.365Z,100519.28
2023-04-07T13:17:33.464Z,100522.69
2023-04-07T13:19:37.514Z,100522.72
2023-04-07T13:21:46.674Z,100523.16
2023-04-07T13:23:51.637Z,100521.53
2023-04-07T13:25:54.576Z,100525.88
2023-04-07T13:27:57.689Z,100535.25
2023-04-07T13:30:00.965Z,100537.84
2023-04-07T13:32:10.516Z,100525.63
2023-04-07T13:34:13.682Z,100531.66
2023-04-07T13:36:17.640Z,100533.88
2023-04-07T13:38:20.517Z,100539.69
2023-04-07T13:40:23.670Z,100544.06
2023-04-07T13:42:26.635Z,100539.63
2023-04-07T13:44:30.584Z,100547.63
2023-04-07T13:46:34.206Z,100546.28
2023-04-07T13:48:38.810Z,100544.00
2023-04-07T13:50:42.073Z,100538.03
2023-04-07T13:52:45.254Z,100541.34
2023-04-07T13:54:48.409Z,100546.41
2023-04-07T13:56:51.708Z,100551.41
2023-04-07T13:58:54.692Z,100549.53
2023-04-07T14:00:57.588Z,100551.06
2023-04-07T14:03:00.774Z,100554.22
2023-04-07T14:05:05.954Z,100550.47
2023-04-07T14:07:08.846Z,100548.22
2023-04-07T14:09:11.745Z,100552.44
2023-04-07T14:11:17.971Z,100548.75
2023-04-07T14:13:20.945Z,100548.22
2023-04-07T14:15:24.244Z,100546.72
2023-04-07T14:17:27.321Z,100547.19
2023-04-07T14:19:30.926Z,100536.34
2023-04-07T14:21:35.303Z,100537.38
2023-04-07T14:23:39.294Z,100531.97
2023-04-07T14:25:42.279Z,100537.63
2023-04-07T14:27:45.206Z,100545.97
2023-04-07T14:29:48.173Z,100546.44
2023-04-07T14:31:51.558Z,100549.69
2023-04-07T14:33:55.595Z,100549.94
2023-04-07T14:35:58.597Z,100554.34
2023-04-07T14:38:03.555Z,100549.63
2023-04-07T14:40:08.537Z,100547.72
2023-04-07T14:42:11.893Z,100548.09
2023-04-07T14:44:14.801Z,100540.94
2023-04-07T14:46:17.958Z,100538.59
2023-04-07T14:48:21.043Z,100545.03
2023-04-07T14:50:24.690Z,100551.44
2023-04-07T14:52:27.785Z,100549.28
2023-04-07T14:54:32.242Z,100551.44
2023-04-07T14:56:35.158Z,100556.81
2023-04-07T14:58:39.104Z,100557.88
2023-04-07T15:00:42.555Z,100556.97
2023-04-07T15:02:45.683Z,100557.56
2023-04-07T15:04:48.988Z,100555.81
2023-04-07T15:06:51.940Z,100555.91
2023-04-07T15:08:55.001Z,100566.47
2023-04-07T15:10:59.446Z,100558.28
2023-04-07T15:13:03.208Z,100567.00
2023-04-07T15:15:07.254Z,100570.38
2023-04-07T15:17:10.192Z,100573.91
2023-04-07T15:19:14.478Z,100580.13
2023-04-07T15:21:18.384Z,100580.00
2023-04-07T15:23:21.318Z,100579.19
2023-04-07T15:25:24.265Z,100578.91
2023-04-07T15:27:28.918Z,100574.28
2023-04-07T15:29:32.294Z,100577.56
2023-04-07T15:31:35.422Z,100579.91
2023-04-07T15:33:39.515Z,100574.56
2023-04-07T15:35:43.287Z,100574.69
2023-04-07T15:37:46.454Z,100577.63
2023-04-07T15:39:49.859Z,100581.38
2023-04-07T15:41:52.813Z,100575.28
2023-04-07T15:43:57.593Z,100576.31
2023-04-07T15:46:00.888Z,100578.00
2023-04-07T15:48:03.973Z,100578.44
2023-04-07T15:50:08.319Z,100580.84
2023-04-07T15:52:12.051Z,100572.97
2023-04-07T15:54:15.150Z,100578.78
2023-04-07T15:56:18.412Z,100587.41
2023-04-07T15:58:21.571Z,100577.09
2023-04-07T16:00:26.637Z,100580.50
2023-04-07T16:02:30.046Z,100582.38
2023-04-07T16:04:34.335Z,100582.41
2023-04-07T16:06:37.274Z,100579.25
2023-04-07T16:08:40.572Z,100588.06
2023-04-07T16:10:43.542Z,100585.47
2023-04-07T16:12:46.787Z,100586.53
2023-04-07T16:14:50.447Z,100584.69
2023-04-07T16:16:59.265Z,100588.06
2023-04-07T16:19:02.755Z,100584.09
2023-04-07T16:21:08.197Z,100584.91
2023-04-07T16:23:11.207Z,100592.47
2023-04-07T16:25:14.098Z,100596.78
2023-04-07T16:27:17.043Z,100590.56
2023-04-07T16:29:20.470Z,100595.84
2023-04-07T16:31:23.471Z,100593.94
2023-04-07T16:33:28.185Z,100598.72
2023-04-07T16:35:31.999Z,100597.97
2023-04-07T16:37:35.168Z,100602.19
2023-04-07T16:39:38.654Z,100598.66
2023-04-07T16:41:41.652Z,100603.66
2023-04-07T16:43:45.034Z,100606.25
2023-04-07T16:45:52.268Z,100607.09
2023-04-07T16:47:57.714Z,100612.66
2023-04-07T16:50:04.511Z,100615.44
2023-04-07T16:52:07.628Z,100618.72
2023-04-07T16:54:10.674Z,100620.84
2023-04-07T16:56:16.688Z,100623.56
2023-04-07T16:58:19.787Z,100622.56
2023-04-07T17:00:22.783Z,100631.00
2023-04-07T17:02:27.570Z,100636.56
2023-04-07T17:04:30.861Z,100637.38
2023-04-07T17:06:35.231Z,100640.81
2023-04-07T17:08:39.096Z,100643.31
2023-04-07T17:10:42.127Z,100653.28
2023-04-07T17:12:45.494Z,100653.03
2023-04-07T17:14:48.706Z,100654.88
2023-04-07T17:16:51.845Z,100649.78
2023-04-07T17:18:56.945Z,100655.19
2023-04-07T17:21:07.936Z,100653.47
2023-04-07T17:23:12.368Z,100656.56
2023-04-07T17:25:19.021Z,100657.53
2023-04-07T17:27:22.268Z,100665.34
2023-04-07T17:29:29.178Z,100673.16
2023-04-07T17:31:34.619Z,100670.63
2023-04-07T17:33:37.601Z,100674.28
2023-04-07T17:35:40.645Z,100678.69
2023-04-07T17:37:44.148Z,100682.25
2023-04-07T17:39:48.407Z,100690.25
2023-04-07T17:41:51.862Z,100690.50
2023-04-07T17:43:54.897Z,100693.91
2023-04-07T17:45:58.026Z,100699.97
2023-04-07T17:48:03.766Z,100701.13
2023-04-07T17:50:08.071Z,100699.34
2023-04-07T17:52:11.411Z,100698.34
2023-04-07T17:54:14.333Z,100709.28
2023-04-07T17:56:20.371Z,100709.28
2023-04-07T17:58:23.631Z,100710.91
2023-04-07T18:00:27.439Z,100712.78
2023-04-07T18:02:30.920Z,100719.47
2023-04-07T18:04:34.845Z,100719.38
2023-04-07T18:06:38.094Z,100721.09
2023-04-07T18:08:41.452Z,100720.97
2023-04-07T18:10:44.432Z,100728.91
2023-04-07T18:12:48.966Z,100721.97
2023-04-07T18:14:52.246Z,100724.56
2023-04-07T18:16:55.706Z,100732.53
2023-04-07T18:19:00.472Z,100734.25
2023-04-07T18:21:04.469Z,100729.03
2023-04-07T18:23:08.307Z,100735.13
2023-04-07T18:25:13.161Z,100738.09
2023-04-07T18:27:27.667Z,100742.34
2023-04-07T18:29:31.997Z,100742.56
2023-04-07T18:31:34.952Z,100749.59
2023-04-07T18:33:38.110Z,100750.38
2023-04-07T18:35:41.268Z,100753.94
2023-04-07T18:37:44.632Z,100752.31
2023-04-07T18:39:48.045Z,100752.50
2023-04-07T18:41:51.708Z,100755.19
2023-04-07T18:43:54.962Z,100771.97
2023-04-07T18:45:59.687Z,100770.28
2023-04-07T18:48:03.092Z,100771.03
2023-04-07T18:50:07.227Z,100774.50
2023-04-07T18:52:11.236Z,100783.44
2023-04-07T18:54:14.413Z,100783.66
2023-04-07T18:56:17.884Z,100785.31
2023-04-07T18:58:21.220Z,100789.03
2023-04-07T19:00:24.184Z,100789.63
2023-04-07T19:02:28.866Z,100784.47
2023-04-07T19:04:31.906Z,100788.72
2023-04-07T19:06:35.797Z,100797.88
2023-04-07T19:08:38.925Z,100799.69
2023-04-07T19:10:45.105Z,100804.13
2023-04-07T19:12:48.033Z,100805.75
2023-04-07T19:14:51.019Z,100804.72
2023-04-07T19:16:54.627Z,100808.31
2023-04-07T19:18:59.250Z,100809.38
2023-04-07T19:21:02.437Z,100818.28
2023-04-07T19:23:05.380Z,100810.31
2023-04-07T19:25:12.534Z,100814.78
2023-04-07T19:27:16.968Z,100815.53
2023-04-07T19:29:20.370Z,100811.38
2023-04-07T19:31:23.674Z,100823.28
2023-04-07T19:33:26.636Z,100812.38
2023-04-07T19:35:32.041Z,100830.09
2023-04-07T19:37:37.624Z,100824.91
2023-04-07T19:39:52.165Z,100828.50
2023-04-07T19:42:06.790Z,100839.13
2023-04-07T19:44:09.688Z,100837.28
2023-04-07T19:46:12.787Z,100835.47
2023-04-07T19:48:15.965Z,100840.69
2023-04-07T19:50:19.894Z,100840.63
2023-04-07T19:52:25.057Z,100838.00
2023-04-07T19:54:28.142Z,100847.63
2023-04-07T19:56:31.539Z,100840.63
2023-04-07T19:58:34.751Z,100841.50
2023-04-07T20:00:38.436Z,100843.44
2023-04-07T20:02:41.629Z,100847.97
2023-04-07T20:04:44.754Z,100850.69
2023-04-07T20:06:47.704Z,100852.47
2023-04-07T20:08:52.008Z,100856.81
2023-04-07T20:10:54.972Z,100861.28
2023-04-07T20:12:57.964Z,100862.16
2023-04-07T20:15:01.604Z,100863.88
2023-04-07T20:17:04.618Z,100859.72
2023-04-07T20:19:07.627Z,100863.97
2023-04-07T20:21:11.076Z,100859.69
2023-04-07T20:23:22.093Z,100863.94
2023-04-07T20:25:26.752Z,100865.47
2023-04-07T20:27:31.756Z,100866.19
2023-04-07T20:29:34.951Z,100868.03
2023-04-07T20:31:37.874Z,100868.22
2023-04-07T20:33:40.927Z,100871.84
2023-04-07T20:35:44.242Z,100874.09
2023-04-07T20:37:47.434Z,100880.25
2023-04-07T20:39:50.924Z,100884.03
2023-04-07T20:41:55.544Z,100882.03
2023-04-07T20:43:58.889Z,100876.75
2023-04-07T20:46:02.591Z,100879.50
2023-04-07T20:48:05.855Z,100886.50
2023-04-07T20:50:10.489Z,100890.03
2023-04-07T20:52:13.427Z,100878.59
2023-04-07T20:54:16.835Z,100880.41
2023-04-07T20:56:19.928Z,100881.34
2023-04-07T20:58:24.504Z,100885.81
2023-04-07T21:00:27.472Z,100889.38
2023-04-07T21:02:30.559Z,100889.53
2023-04-07T21:04:33.921Z,100889.59
2023-04-07T21:06:37.049Z,100895.13
2023-04-07T21:08:40.231Z,100896.78
2023-04-07T21:10:43.529Z,100896.72
2023-04-07T21:12:47.369Z,100894.19
2023-04-07T21:14:52.437Z,100899.53
2023-04-07T21:16:55.506Z,100900.63
2023-04-07T21:18:58.627Z,100898.97
2023-04-07T21:21:02.993Z,100899.06
2023-04-07T21:23:07.821Z,100900.19
2023-04-07T21:25:11.582Z,100893.38
2023-04-07T21:27:14.767Z,100892.63
2023-04-07T21:29:17.761Z,100897.09
2023-04-07T21:31:26.253Z,100894.44
2023-04-07T21:33:29.606Z,100899.94
2023-04-07T21:35:32.768Z,100901.72
2023-04-07T21:37:36.159Z,100897.50
2023-04-07T21:39:39.113Z,100896.72
2023-04-07T21:41:42.352Z,100902.19
2023-04-07T21:43:45.318Z,100905.84
2023-04-07T21:45:48.398Z,100905.78
2023-04-07T21:47:52.808Z,100904.91
2023-04-07T21:49:57.950Z,100903.22
2023-04-07T21:52:01.065Z,100910.38
2023-04-07T21:54:04.264Z,100906.84
2023-04-07T21:56:09.323Z,100902.47
2023-04-07T21:58:12.238Z,100908.81
2023-04-07T22:00:16.508Z,100904.50
2023-04-07T22:02:20.411Z,100910.69
2023-04-07T22:04:25.005Z,100906.31
2023-04-07T22:06:28.076Z,100908.06
2023-04-07T22:08:30.999Z,100903.72
2023-04-07T22:10:34.017Z,100903.72
2023-04-07T22:12:37.204Z,100913.47
2023-04-07T22:14:40.175Z,100916.38
2023-04-07T22:16:43.177Z,100904.28
2023-04-07T22:18:46.230Z,100906.03
2023-04-07T22:20:50.616Z,100911.25
2023-04-07T22:22:57.226Z,100911.38
2023-04-07T22:25:00.787Z,100909.72
2023-04-07T22:27:03.783Z,100905.41
2023-04-07T22:29:09.285Z,100916.06
2023-04-07T22:31:12.413Z,100913.63
2023-04-07T22:33:15.617Z,100911.28
2023-04-07T22:35:19.021Z,100910.50
2023-04-07T22:37:23.346Z,100916.00
2023-04-07T22:39:26.775Z,100915.25
2023-04-07T22:41:29.752Z,100916.22
2023-04-07T22:43:32.863Z,100924.91
2023-04-07T22:45:35.967Z,100927.50
2023-04-07T22:47:39.672Z,100926.78
2023-04-07T22:49:43.101Z,100920.78
2023-04-07T22:51:48.626Z,100924.38
2023-04-07T22:53:53.261Z,100929.69
2023-04-07T22:55:56.295Z,100926.25
2023-04-07T22:57:59.257Z,100933.38
2023-04-07T23:00:02.293Z,100932.59
2023-04-07T23:02:05.519Z,100936.25
2023-04-07T23:04:08.732Z,100932.00
2023-04-07T23:06:11.718Z,100936.41
2023-04-07T23:08:14.794Z,100934.69
2023-04-07T23:10:19.327Z,100941.03
2023-04-07T23:12:22.297Z,100945.41
2023-04-07T23:14:25.363Z,100951.63
2023-04-07T23:16:28.298Z,100946.50
2023-04-07T23:18:31.553Z,100949.16
2023-04-07T23:20:34.624Z,100944.81
2023-04-07T23:22:38.092Z,100955.34
2023-04-07T23:24:41.809Z,100953.66
2023-04-07T23:26:46.664Z,100955.47
2023-04-07T23:28:49.834Z,100957.34
2023-04-07T23:30:52.961Z,100962.72
2023-04-07T23:32:56.192Z,100959.19
2023-04-07T23:34:59.411Z,100957.47
2023-04-07T23:37:02.867Z,100954.88
2023-04-07T23:39:05.780Z,100958.50
2023-04-07T23:41:09.326Z,100964.72
2023-04-07T23:43:13.778Z,100970.84
2023-04-07T23:45:18.160Z,100965.56
2023-04-07T23:47:23.004Z,100971.69